createdAt,value
2023-03-01T00:01:11.925Z,7.54
2023-03-01T00:03:42.273Z,7.48
2023-03-01T00:06:09.837Z,7.26
2023-03-01T00:08:37.092Z,7.07
2023-03-01T00:11:08.823Z,7.20
2023-03-01T00:13:36.547Z,7.26
2023-03-01T00:16:09.280Z,7.11
2023-03-01T00:18:36.331Z,7.14
2023-03-01T00:21:03.180Z,7.21
2023-03-01T00:23:30.383Z,7.17
2023-03-01T00:25:57.112Z,7.21
2023-03-01T00:28:24.402Z,7.27
2023-03-01T00:30:51.149Z,7.28
2023-03-01T00:33:18.594Z,7.19
2023-03-01T00:35:45.816Z,7.17
2023-03-01T00:38:12.692Z,7.22
2023-03-01T00:40:39.371Z,7.26
2023-03-01T00:43:06.944Z,7.28
2023-03-01T00:45:34.188Z,7.30
2023-03-01T00:48:01.148Z,7.30
2023-03-01T00:50:28.773Z,7.35
2023-03-01T00:52:56.605Z,7.36
2023-03-01T00:55:24.581Z,7.38
2023-03-01T00:57:52.080Z,7.32
2023-03-01T01:00:20.442Z,7.39
2023-03-01T01:02:48.442Z,7.40
2023-03-01T01:05:15.670Z,7.39
2023-03-01T01:07:42.424Z,7.40
2023-03-01T01:10:13.912Z,7.42
2023-03-01T01:12:40.833Z,7.47
2023-03-01T01:15:08.112Z,7.55
2023-03-01T01:17:36.172Z,7.58
2023-03-01T01:20:03.295Z,7.70
2023-03-01T01:22:30.206Z,7.76
2023-03-01T01:24:56.933Z,7.83
2023-03-01T01:27:23.953Z,7.85
2023-03-01T01:29:50.685Z,7.89
2023-03-01T01:32:17.575Z,7.95
2023-03-01T01:34:44.630Z,7.98
2023-03-01T01:37:11.848Z,8.00
2023-03-01T01:39:38.773Z,7.93
2023-03-01T01:42:05.644Z,7.86
2023-03-01T01:44:35.279Z,7.69
2023-03-01T01:47:08.608Z,7.68
2023-03-01T01:49:57.236Z,7.63
2023-03-01T01:52:35.775Z,7.59
2023-03-01T01:55:09.826Z,7.59
2023-03-01T01:58:10.785Z,7.69
2023-03-01T02:00:39.866Z,7.72
2023-03-01T02:03:13.727Z,7.84
2023-03-01T02:05:55.519Z,7.87
2023-03-01T02:08:26.026Z,7.92
2023-03-01T02:10:53.988Z,7.98
2023-03-01T02:13:20.937Z,8.10
2023-03-01T02:15:48.196Z,8.13
2023-03-01T02:18:21.222Z,8.16
2023-03-01T02:20:51.029Z,8.20
2023-03-01T02:23:19.133Z,8.23
2023-03-01T02:25:50.332Z,8.24
2023-03-01T02:28:17.062Z,8.27
2023-03-01T02:31:04.539Z,8.22
2023-03-01T02:33:33.857Z,8.28
2023-03-01T02:36:04.625Z,8.37
2023-03-01T02:38:32.830Z,8.36
2023-03-01T02:41:00.724Z,8.34
2023-03-01T02:43:32.758Z,8.25
2023-03-01T02:46:13.970Z,8.22
2023-03-01T02:48:49.991Z,8.25
2023-03-01T02:51:47.700Z,8.31
2023-03-01T02:54:14.534Z,8.41
2023-03-01T02:56:42.444Z,8.47
2023-03-01T02:59:10.627Z,8.54
2023-03-01T03:01:37.901Z,8.50
2023-03-01T03:04:08.123Z,8.47
2023-03-01T03:06:35.060Z,8.43
2023-03-01T03:09:02.000Z,8.41
2023-03-01T03:11:28.878Z,8.42
2023-03-01T03:13:56.158Z,8.39
2023-03-01T03:16:23.842Z,8.36
2023-03-01T03:18:50.625Z,8.33
2023-03-01T03:21:17.558Z,8.26
2023-03-01T03:23:44.884Z,8.22
2023-03-01T03:26:14.396Z,8.25
2023-03-01T03:28:41.319Z,8.22
2023-03-01T03:31:08.987Z,8.17
2023-03-01T03:33:35.984Z,8.18
2023-03-01T03:36:02.772Z,8.14
2023-03-01T03:38:29.656Z,8.13
2023-03-01T03:41:08.396Z,8.12
2023-03-01T03:43:37.972Z,8.18
2023-03-01T03:46:06.881Z,8.21
2023-03-01T03:48:39.286Z,8.15
2023-03-01T03:51:06.814Z,8.15
2023-03-01T03:53:33.941Z,8.08
2023-03-01T03:56:00.848Z,8.04
2023-03-01T03:58:27.632Z,8.08
2023-03-01T04:00:57.388Z,8.09
2023-03-01T04:03:26.348Z,8.08
2023-03-01T04:05:53.872Z,8.10
2023-03-01T04:08:22.753Z,8.13
2023-03-01T04:10:53.793Z,8.12
2023-03-01T04:13:23.624Z,8.09
2023-03-01T04:15:51.945Z,8.06
2023-03-01T04:18:20.717Z,8.08
2023-03-01T04:20:48.347Z,8.16
2023-03-01T04:23:21.026Z,8.14
2023-03-01T04:25:59.294Z,8.16
2023-03-01T04:28:37.661Z,8.10
2023-03-01T04:31:18.389Z,7.96
2023-03-01T04:33:47.015Z,7.92
2023-03-01T04:36:15.722Z,7.86
2023-03-01T04:38:43.000Z,7.75
2023-03-01T04:41:12.213Z,7.83
2023-03-01T04:43:39.272Z,7.84
2023-03-01T04:46:13.921Z,7.89
2023-03-01T04:48:44.265Z,7.92
2023-03-01T04:51:14.561Z,7.96
2023-03-01T04:53:43.016Z,8.00
2023-03-01T04:56:10.711Z,8.05
2023-03-01T04:58:37.855Z,8.04
2023-03-01T05:01:16.171Z,8.05
2023-03-01T05:03:48.254Z,8.10
2023-03-01T05:06:16.048Z,8.11
2023-03-01T05:08:43.761Z,8.13
2023-03-01T05:11:11.601Z,8.10
2023-03-01T05:13:39.917Z,8.09
2023-03-01T05:16:12.554Z,8.09
2023-03-01T05:18:41.099Z,8.02
2023-03-01T05:21:13.687Z,8.07
2023-03-01T05:23:40.868Z,8.05
2023-03-01T05:26:16.103Z,8.10
2023-03-01T05:28:49.308Z,8.08
2023-03-01T05:31:16.861Z,8.10
2023-03-01T05:33:44.492Z,8.11
2023-03-01T05:36:11.452Z,8.12
2023-03-01T05:38:38.238Z,8.10
2023-03-01T05:41:05.197Z,8.12
2023-03-01T05:43:36.120Z,8.23
2023-03-01T05:46:02.990Z,8.19
2023-03-01T05:48:29.843Z,8.12
2023-03-01T05:51:01.729Z,8.14
2023-03-01T05:53:28.576Z,8.14
2023-03-01T05:55:55.289Z,8.14
2023-03-01T05:58:22.762Z,8.33
2023-03-01T06:00:50.381Z,8.23
2023-03-01T06:03:18.326Z,8.17
2023-03-01T06:05:45.554Z,8.14
2023-03-01T06:08:13.686Z,8.18
2023-03-01T06:10:40.620Z,7.98
2023-03-01T06:13:07.421Z,8.01
2023-03-01T06:15:34.171Z,8.00
2023-03-01T06:18:00.918Z,8.03
2023-03-01T06:20:29.609Z,8.07
2023-03-01T06:22:56.604Z,8.05
2023-03-01T06:25:25.950Z,8.13
2023-03-01T06:27:55.752Z,8.16
2023-03-01T06:30:24.758Z,8.25
2023-03-01T06:32:52.125Z,8.23
2023-03-01T06:35:19.903Z,8.24
2023-03-01T06:37:47.800Z,8.27
2023-03-01T06:40:16.275Z,8.30
2023-03-01T06:42:48.560Z,8.27
2023-03-01T06:45:15.637Z,8.34
2023-03-01T06:47:42.557Z,8.38
2023-03-01T06:50:10.186Z,8.41
2023-03-01T06:52:37.295Z,8.43
2023-03-01T06:55:05.228Z,8.45
2023-03-01T06:57:32.194Z,8.48
2023-03-01T06:59:59.100Z,8.57
2023-03-01T07:02:25.959Z,8.69
2023-03-01T07:04:53.645Z,8.69
2023-03-01T07:07:21.008Z,8.68
2023-03-01T07:09:49.304Z,8.70
2023-03-01T07:12:16.131Z,8.82
2023-03-01T07:14:44.945Z,8.83
2023-03-01T07:17:11.657Z,8.86
2023-03-01T07:19:38.417Z,8.81
2023-03-01T07:22:05.695Z,8.83
2023-03-01T07:24:32.423Z,8.88
2023-03-01T07:26:59.305Z,8.82
2023-03-01T07:29:26.073Z,8.80
2023-03-01T07:31:53.207Z,8.79
2023-03-01T07:34:19.959Z,8.79
2023-03-01T07:36:46.690Z,8.82
2023-03-01T07:39:13.457Z,8.87
2023-03-01T07:41:40.338Z,8.88
2023-03-01T07:44:07.352Z,8.84
2023-03-01T07:46:34.253Z,8.82
2023-03-01T07:49:01.051Z,8.83
2023-03-01T07:51:27.856Z,8.81
2023-03-01T07:53:54.561Z,8.78
2023-03-01T07:56:23.024Z,8.73
2023-03-01T07:58:50.981Z,8.71
2023-03-01T08:01:20.512Z,8.70
2023-03-01T08:03:47.696Z,8.73
2023-03-01T08:06:17.271Z,8.69
2023-03-01T08:08:44.449Z,8.62
2023-03-01T08:11:16.008Z,8.56
2023-03-01T08:13:44.353Z,8.52
2023-03-01T08:16:13.614Z,8.56
2023-03-01T08:18:40.450Z,8.55
2023-03-01T08:21:14.854Z,8.52
2023-03-01T08:23:42.445Z,8.51
2023-03-01T08:26:18.263Z,8.51
2023-03-01T08:28:45.567Z,8.51
2023-03-01T08:31:19.398Z,8.52
2023-03-01T08:33:51.698Z,8.49
2023-03-01T08:36:19.381Z,8.50
2023-03-01T08:38:46.863Z,8.48
2023-03-01T08:41:14.101Z,8.50
2023-03-01T08:43:41.081Z,8.47
2023-03-01T08:46:08.049Z,8.41
2023-03-01T08:48:34.816Z,8.37
2023-03-01T08:51:12.683Z,8.36
2023-03-01T08:53:40.277Z,8.32
2023-03-01T08:56:07.765Z,8.33
2023-03-01T08:58:34.557Z,8.36
2023-03-01T09:01:01.596Z,8.32
2023-03-01T09:03:28.525Z,8.31
2023-03-01T09:06:01.654Z,8.25
2023-03-01T09:08:29.044Z,8.37
2023-03-01T09:10:56.099Z,8.40
2023-03-01T09:13:25.848Z,8.29
2023-03-01T09:15:52.889Z,8.24
2023-03-01T09:18:19.660Z,8.18
2023-03-01T09:20:46.572Z,8.15
2023-03-01T09:23:13.310Z,8.20
2023-03-01T09:25:40.060Z,8.16
2023-03-01T09:28:06.807Z,8.16
2023-03-01T09:30:34.055Z,8.21
2023-03-01T09:33:01.029Z,8.17
2023-03-01T09:35:27.953Z,8.21
2023-03-01T09:37:54.704Z,8.22
2023-03-01T09:40:25.287Z,8.24
2023-03-01T09:43:15.277Z,8.33
2023-03-01T09:45:46.719Z,8.27
2023-03-01T09:48:19.990Z,8.19
2023-03-01T09:50:47.882Z,8.16
2023-03-01T09:53:21.234Z,8.16
2023-03-01T09:56:19.930Z,8.16
2023-03-01T09:58:55.687Z,8.14
2023-03-01T10:01:22.401Z,8.13
2023-03-01T10:04:20.260Z,8.08
2023-03-01T10:07:02.093Z,8.08
2023-03-01T10:09:34.717Z,8.06
2023-03-01T10:12:03.452Z,8.05
2023-03-01T10:14:43.160Z,8.06
2023-03-01T10:17:57.553Z,7.98
2023-03-01T10:20:27.149Z,7.95
2023-03-01T10:22:56.219Z,8.02
2023-03-01T10:25:42.483Z,7.97
2023-03-01T10:28:24.319Z,7.83
2023-03-01T10:30:52.483Z,7.72
2023-03-01T10:33:40.712Z,7.70
2023-03-01T10:36:08.394Z,7.67
2023-03-01T10:38:54.892Z,7.75
2023-03-01T10:41:24.446Z,7.70
2023-03-01T10:43:55.701Z,7.67
2023-03-01T10:46:34.036Z,7.61
2023-03-01T10:49:17.656Z,7.57
2023-03-01T10:51:48.073Z,7.57
2023-03-01T10:54:23.357Z,7.68
2023-03-01T10:56:56.652Z,7.62
2023-03-01T10:59:29.340Z,7.53
2023-03-01T11:02:24.123Z,7.36
2023-03-01T11:04:58.209Z,7.37
2023-03-01T11:07:25.501Z,7.37
2023-03-01T11:09:52.223Z,7.32
2023-03-01T11:12:19.434Z,7.31
2023-03-01T11:14:51.782Z,7.33
2023-03-01T11:17:53.642Z,7.40
2023-03-01T11:20:38.986Z,7.51
2023-03-01T11:23:12.093Z,7.61
2023-03-01T11:25:43.104Z,7.67
2023-03-01T11:28:16.239Z,7.70
2023-03-01T11:31:07.845Z,7.72
2023-03-01T11:33:43.593Z,7.77
2023-03-01T11:36:34.243Z,7.76
2023-03-01T11:39:20.476Z,7.76
2023-03-01T11:41:53.262Z,7.79
2023-03-01T11:44:26.491Z,7.81
2023-03-01T11:47:18.044Z,7.83
2023-03-01T11:49:56.553Z,7.81
2023-03-01T11:52:41.634Z,7.83
2023-03-01T11:55:44.030Z,7.85
2023-03-01T11:58:29.451Z,7.89
2023-03-01T12:01:44.891Z,7.90
2023-03-01T12:04:30.266Z,7.90
2023-03-01T12:07:00.988Z,7.84
2023-03-01T12:09:51.356Z,7.85
2023-03-01T12:12:30.145Z,7.86
2023-03-01T12:15:19.223Z,7.86
2023-03-01T12:17:56.616Z,7.83
2023-03-01T12:20:23.431Z,7.91
2023-03-01T12:23:21.307Z,7.85
2023-03-01T12:26:15.769Z,7.87
2023-03-01T12:29:01.872Z,7.89
2023-03-01T12:31:41.025Z,7.91
2023-03-01T12:34:14.106Z,7.96
2023-03-01T12:36:59.204Z,7.92
2023-03-01T12:39:59.048Z,7.84
2023-03-01T12:42:34.834Z,7.74
2023-03-01T12:45:13.598Z,7.70
2023-03-01T12:48:12.825Z,7.63
2023-03-01T12:50:45.142Z,7.63
2023-03-01T12:53:24.924Z,7.59
2023-03-01T12:55:55.236Z,7.59
2023-03-01T12:58:36.991Z,7.56
2023-03-01T13:01:27.812Z,7.53
2023-03-01T13:04:09.229Z,7.51
2023-03-01T13:06:56.196Z,7.50
2023-03-01T13:09:25.960Z,7.48
2023-03-01T13:11:53.130Z,7.44
2023-03-01T13:14:23.953Z,7.46
2023-03-01T13:16:54.587Z,7.42
2023-03-01T13:19:26.372Z,7.42
2023-03-01T13:21:55.830Z,7.40
2023-03-01T13:24:38.859Z,7.40
2023-03-01T13:27:09.381Z,7.39
2023-03-01T13:30:35.025Z,7.41
2023-03-01T13:33:35.294Z,7.44
2023-03-01T13:36:02.839Z,7.51
2023-03-01T13:38:58.541Z,7.57
2023-03-01T13:41:43.762Z,7.62
2023-03-01T13:44:30.000Z,7.65
2023-03-01T13:47:13.670Z,7.62
2023-03-01T13:49:46.505Z,7.58
2023-03-01T13:52:43.409Z,7.57
2023-03-01T13:55:17.776Z,7.62
2023-03-01T13:57:49.006Z,7.65
2023-03-01T14:00:30.924Z,7.70
2023-03-01T14:03:06.109Z,7.79
2023-03-01T14:05:34.959Z,7.72
2023-03-01T14:08:01.914Z,7.73
2023-03-01T14:10:44.520Z,7.71
2023-03-01T14:13:30.239Z,7.72
2023-03-01T14:16:25.918Z,7.73
2023-03-01T14:19:32.582Z,7.76
2023-03-01T14:22:22.162Z,7.82
2023-03-01T14:25:04.300Z,7.78
2023-03-01T14:27:40.592Z,7.76
2023-03-01T14:30:15.706Z,7.77
2023-03-01T14:32:42.755Z,7.83
2023-03-01T14:35:25.103Z,7.78
2023-03-01T14:37:52.104Z,7.79
2023-03-01T14:40:25.629Z,7.77
2023-03-01T14:42:53.491Z,7.78
2023-03-01T14:45:21.337Z,7.80
2023-03-01T14:47:49.644Z,7.79
2023-03-01T14:50:23.398Z,7.83
2023-03-01T14:52:53.304Z,7.85
2023-03-01T14:55:30.575Z,7.87
2023-03-01T14:57:58.361Z,7.82
2023-03-01T15:00:31.114Z,7.83
2023-03-01T15:03:04.246Z,7.91
2023-03-01T15:05:33.226Z,7.91
2023-03-01T15:08:02.602Z,7.71
2023-03-01T15:10:35.951Z,7.74
2023-03-01T15:13:22.723Z,7.71
2023-03-01T15:15:54.851Z,7.76
2023-03-01T15:18:27.019Z,7.70
2023-03-01T15:20:54.674Z,7.63
2023-03-01T15:23:28.396Z,7.65
2023-03-01T15:25:59.288Z,7.69
2023-03-01T15:28:29.399Z,7.52
2023-03-01T15:31:16.505Z,7.54
2023-03-01T15:33:48.182Z,7.42
2023-03-01T15:36:34.088Z,7.40
2023-03-01T15:39:02.124Z,7.37
2023-03-01T15:41:32.151Z,7.53
2023-03-01T15:44:00.675Z,7.38
2023-03-01T15:46:38.689Z,7.38
2023-03-01T15:49:26.259Z,7.44
2023-03-01T15:51:56.073Z,7.43
2023-03-01T15:54:26.170Z,7.36
2023-03-01T15:56:53.325Z,7.41
2023-03-01T15:59:20.126Z,7.28
2023-03-01T16:01:49.840Z,7.19
2023-03-01T16:04:23.850Z,7.22
2023-03-01T16:06:55.234Z,7.29
2023-03-01T16:09:26.268Z,7.33
2023-03-01T16:11:54.500Z,7.41
2023-03-01T16:14:22.057Z,7.42
2023-03-01T16:16:49.814Z,7.42
2023-03-01T16:19:17.095Z,7.41
2023-03-01T16:21:44.841Z,7.36
2023-03-01T16:24:11.675Z,7.46
2023-03-01T16:26:38.823Z,7.49
2023-03-01T16:29:06.066Z,7.51
2023-03-01T16:31:33.797Z,7.55
2023-03-01T16:34:01.287Z,7.55
2023-03-01T16:36:31.626Z,7.50
2023-03-01T16:39:01.510Z,7.53
2023-03-01T16:41:28.842Z,7.50
2023-03-01T16:43:55.716Z,7.52
2023-03-01T16:46:25.391Z,7.56
2023-03-01T16:48:53.304Z,7.58
2023-03-01T16:51:20.975Z,7.57
2023-03-01T16:53:47.961Z,7.56
2023-03-01T16:56:15.544Z,7.57
2023-03-01T16:58:42.527Z,7.57
2023-03-01T17:01:20.873Z,7.56
2023-03-01T17:03:49.771Z,7.51
2023-03-01T17:06:21.385Z,7.51
2023-03-01T17:08:48.261Z,7.55
2023-03-01T17:11:18.656Z,7.55
2023-03-01T17:13:45.472Z,7.51
2023-03-01T17:16:15.427Z,7.45
2023-03-01T17:18:43.036Z,7.40
2023-03-01T17:21:10.312Z,7.41
2023-03-01T17:23:39.738Z,7.44
2023-03-01T17:26:07.626Z,7.42
2023-03-01T17:28:36.392Z,7.43
2023-03-01T17:31:05.520Z,7.31
2023-03-01T17:33:33.077Z,7.23
2023-03-01T17:36:00.792Z,7.26
2023-03-01T17:38:28.107Z,7.29
2023-03-01T17:40:55.056Z,7.24
2023-03-01T17:43:22.500Z,7.27
2023-03-01T17:45:51.594Z,7.30
2023-03-01T17:48:19.018Z,7.31
2023-03-01T17:50:46.086Z,7.37
2023-03-01T17:53:13.776Z,7.39
2023-03-01T17:55:42.541Z,7.44
2023-03-01T17:58:12.506Z,7.45
2023-03-01T18:00:40.077Z,7.45
2023-03-01T18:03:07.325Z,7.50
2023-03-01T18:05:36.031Z,7.50
2023-03-01T18:08:03.058Z,7.52
2023-03-01T18:10:31.249Z,7.50
2023-03-01T18:12:58.067Z,7.53
2023-03-01T18:15:24.977Z,7.58
2023-03-01T18:17:51.753Z,7.58
2023-03-01T18:20:19.451Z,7.56
2023-03-01T18:22:46.547Z,7.57
2023-03-01T18:25:13.817Z,7.63
2023-03-01T18:27:40.692Z,7.57
2023-03-01T18:30:09.156Z,7.55
2023-03-01T18:32:36.110Z,7.53
2023-03-01T18:35:03.600Z,7.54
2023-03-01T18:37:30.619Z,7.53
2023-03-01T18:39:57.493Z,7.51
2023-03-01T18:42:24.509Z,7.53
2023-03-01T18:44:51.584Z,7.56
2023-03-01T18:47:18.359Z,7.49
2023-03-01T18:49:45.290Z,7.47
2023-03-01T18:52:12.236Z,7.39
2023-03-01T18:54:39.150Z,7.38
2023-03-01T18:57:05.898Z,7.31
2023-03-01T18:59:33.443Z,7.28
2023-03-01T19:02:00.422Z,7.24
2023-03-01T19:04:27.625Z,7.17
2023-03-01T19:06:54.498Z,6.99
2023-03-01T19:09:21.316Z,6.88
2023-03-01T19:11:48.068Z,6.89
2023-03-01T19:14:14.951Z,7.00
2023-03-01T19:16:41.756Z,7.07
2023-03-01T19:19:10.124Z,7.12
2023-03-01T19:21:37.315Z,7.03
2023-03-01T19:24:04.692Z,6.98
2023-03-01T19:26:32.879Z,6.97
2023-03-01T19:29:00.734Z,6.90
2023-03-01T19:31:30.169Z,6.80
2023-03-01T19:34:16.035Z,6.80
2023-03-01T19:36:45.020Z,6.70
2023-03-01T19:39:14.405Z,6.66
2023-03-01T19:41:42.903Z,6.68
2023-03-01T19:44:10.825Z,6.78
2023-03-01T19:46:41.098Z,6.80
2023-03-01T19:49:08.838Z,6.81
2023-03-01T19:51:39.191Z,6.75
2023-03-01T19:54:06.702Z,6.68
2023-03-01T19:56:34.865Z,6.73
2023-03-01T19:59:04.712Z,6.70
2023-03-01T20:01:34.711Z,6.64
2023-03-01T20:04:02.791Z,6.59
2023-03-01T20:06:30.484Z,6.54
2023-03-01T20:08:57.955Z,6.47
2023-03-01T20:11:25.572Z,6.41
2023-03-01T20:13:52.504Z,6.31
2023-03-01T20:16:20.360Z,6.32
2023-03-01T20:18:47.209Z,6.33
2023-03-01T20:21:24.120Z,6.32
2023-03-01T20:23:52.931Z,6.28
2023-03-01T20:26:21.989Z,6.32
2023-03-01T20:28:52.832Z,6.39
2023-03-01T20:31:22.184Z,6.39
2023-03-01T20:33:49.735Z,6.26
2023-03-01T20:36:17.424Z,5.99
2023-03-01T20:38:45.539Z,5.85
2023-03-01T20:41:14.440Z,5.82
2023-03-01T20:43:44.976Z,5.86
2023-03-01T20:46:15.210Z,5.85
2023-03-01T20:48:43.313Z,5.80
2023-03-01T20:51:12.480Z,5.72
2023-03-01T20:53:40.536Z,5.57
2023-03-01T20:56:14.206Z,5.52
2023-03-01T20:58:46.166Z,5.44
2023-03-01T21:01:56.549Z,5.45
2023-03-01T21:04:23.708Z,5.56
2023-03-01T21:06:50.719Z,5.64
2023-03-01T21:09:17.895Z,5.73
2023-03-01T21:11:45.928Z,5.76
2023-03-01T21:14:12.960Z,5.74
2023-03-01T21:16:40.020Z,5.69
2023-03-01T21:19:07.559Z,5.73
2023-03-01T21:21:34.598Z,5.77
2023-03-01T21:24:01.815Z,5.70
2023-03-01T21:26:30.484Z,5.43
2023-03-01T21:29:03.122Z,5.35
2023-03-01T21:31:35.328Z,5.31
2023-03-01T21:34:06.032Z,5.36
2023-03-01T21:36:35.952Z,5.40
2023-03-01T21:39:07.016Z,5.46
2023-03-01T21:41:41.117Z,5.46
2023-03-01T21:44:13.900Z,5.43
2023-03-01T21:46:42.977Z,5.47
2023-03-01T21:49:11.300Z,5.34
2023-03-01T21:51:39.639Z,5.26
2023-03-01T21:54:09.528Z,5.27
2023-03-01T21:56:39.808Z,5.35
2023-03-01T21:59:15.362Z,5.32
2023-03-01T22:01:43.109Z,5.30
2023-03-01T22:04:10.925Z,5.30
2023-03-01T22:06:41.346Z,5.02
2023-03-01T22:09:16.827Z,4.86
2023-03-01T22:11:47.226Z,4.80
2023-03-01T22:14:14.846Z,4.80
2023-03-01T22:16:46.211Z,4.91
2023-03-01T22:19:16.236Z,5.02
2023-03-01T22:21:45.454Z,5.10
2023-03-01T22:24:13.744Z,5.10
2023-03-01T22:26:43.616Z,4.91
2023-03-01T22:29:15.111Z,4.86
2023-03-01T22:31:42.679Z,4.82
2023-03-01T22:34:10.327Z,4.72
2023-03-01T22:36:39.461Z,4.65
2023-03-01T22:39:06.720Z,4.74
2023-03-01T22:41:37.610Z,4.79
2023-03-01T22:44:04.843Z,4.89
2023-03-01T22:46:32.311Z,4.94
2023-03-01T22:48:59.592Z,4.83
2023-03-01T22:51:32.485Z,4.69
2023-03-01T22:53:59.880Z,4.69
2023-03-01T22:56:30.615Z,4.68
2023-03-01T22:59:03.160Z,4.70
2023-03-01T23:01:31.164Z,4.64
2023-03-01T23:03:58.395Z,4.52
2023-03-01T23:06:25.515Z,4.55
2023-03-01T23:08:54.548Z,4.54
2023-03-01T23:11:22.590Z,4.40
2023-03-01T23:13:50.155Z,4.41
2023-03-01T23:16:18.334Z,4.49
2023-03-01T23:18:45.518Z,4.60
2023-03-01T23:21:18.347Z,4.60
2023-03-01T23:23:47.274Z,4.56
2023-03-01T23:26:15.259Z,4.63
2023-03-01T23:28:42.976Z,4.69
2023-03-01T23:31:13.913Z,4.71
2023-03-01T23:33:43.325Z,4.72
2023-03-01T23:36:15.955Z,4.75
2023-03-01T23:38:42.809Z,4.79
2023-03-01T23:41:16.071Z,4.74
2023-03-01T23:43:47.605Z,4.76
2023-03-01T23:46:16.040Z,4.71
2023-03-01T23:48:43.776Z,4.70
2023-03-01T23:51:11.786Z,4.70
2023-03-01T23:53:44.964Z,4.70
2023-03-01T23:56:13.684Z,4.53
2023-03-01T23:58:43.412Z,4.38
